sensor_id;sensor_type;location;lat;lon;timestamp;P1;durP1;ratioP1;P2;durP2;ratioP2
31734;SDS011;18313;48.518;9.124;2024-02-16T00:01:16;10.93;;;6.07;;
31734;SDS011;18313;48.518;9.124;2024-02-16T00:03:43;10.43;;;5.95;;
31734;SDS011;18313;48.518;9.124;2024-02-16T00:06:10;11.27;;;6.35;;
31734;SDS011;18313;48.518;9.124;2024-02-16T00:08:38;11.35;;;5.93;;
31734;SDS011;18313;48.518;9.124;2024-02-16T00:11:05;13.35;;;6.05;;
31734;SDS011;18313;48.518;9.124;2024-02-16T00:13:32;11.32;;;6.22;;
31734;SDS011;18313;48.518;9.124;2024-02-16T00:15:59;10.00;;;5.97;;
31734;SDS011;18313;48.518;9.124;2024-02-16T00:18:27;11.52;;;5.47;;
31734;SDS011;18313;48.518;9.124;2024-02-16T00:20:54;11.32;;;5.85;;
31734;SDS011;18313;48.518;9.124;2024-02-16T00:23:22;11.50;;;6.03;;
31734;SDS011;18313;48.518;9.124;2024-02-16T00:25:51;11.25;;;5.82;;
31734;SDS011;18313;48.518;9.124;2024-02-16T00:28:18;10.18;;;6.53;;
31734;SDS011;18313;48.518;9.124;2024-02-16T00:30:45;10.10;;;5.68;;
31734;SDS011;18313;48.518;9.124;2024-02-16T00:33:13;14.93;;;6.07;;
31734;SDS011;18313;48.518;9.124;2024-02-16T00:35:40;9.18;;;5.28;;
31734;SDS011;18313;48.518;9.124;2024-02-16T00:38:08;11.75;;;5.90;;
31734;SDS011;18313;48.518;9.124;2024-02-16T00:40:35;11.80;;;5.78;;
31734;SDS011;18313;48.518;9.124;2024-02-16T00:43:03;10.82;;;5.97;;
31734;SDS011;18313;48.518;9.124;2024-02-16T00:45:30;9.18;;;5.90;;
31734;SDS011;18313;48.518;9.124;2024-02-16T00:47:57;10.05;;;5.63;;
31734;SDS011;18313;48.518;9.124;2024-02-16T00:50:25;9.57;;;6.22;;
31734;SDS011;18313;48.518;9.124;2024-02-16T00:52:53;9.13;;;5.45;;
31734;SDS011;18313;48.518;9.124;2024-02-16T00:55:20;12.88;;;6.20;;
31734;SDS011;18313;48.518;9.124;2024-02-16T00:57:47;11.75;;;6.10;;
31734;SDS011;18313;48.518;9.124;2024-02-16T01:00:15;12.40;;;5.45;;
31734;SDS011;18313;48.518;9.124;2024-02-16T01:02:42;9.20;;;5.20;;
31734;SDS011;18313;48.518;9.124;2024-02-16T01:05:09;12.10;;;5.53;;
31734;SDS011;18313;48.518;9.124;2024-02-16T01:07:37;7.90;;;5.03;;
31734;SDS011;18313;48.518;9.124;2024-02-16T01:10:06;8.02;;;5.32;;
31734;SDS011;18313;48.518;9.124;2024-02-16T01:12:34;7.78;;;4.85;;
31734;SDS011;18313;48.518;9.124;2024-02-16T01:15:01;11.00;;;5.80;;
31734;SDS011;18313;48.518;9.124;2024-02-16T01:17:29;9.30;;;5.35;;
31734;SDS011;18313;48.518;9.124;2024-02-16T01:19:56;7.80;;;4.80;;
31734;SDS011;18313;48.518;9.124;2024-02-16T01:22:24;9.32;;;5.05;;
31734;SDS011;18313;48.518;9.124;2024-02-16T01:24:51;6.95;;;4.32;;
31734;SDS011;18313;48.518;9.124;2024-02-16T01:27:19;8.90;;;5.20;;
31734;SDS011;18313;48.518;9.124;2024-02-16T01:29:48;11.70;;;5.35;;
31734;SDS011;18313;48.518;9.124;2024-02-16T01:32:15;8.07;;;4.78;;
31734;SDS011;18313;48.518;9.124;2024-02-16T01:34:42;9.45;;;4.93;;
31734;SDS011;18313;48.518;9.124;2024-02-16T01:37:13;9.00;;;4.80;;
31734;SDS011;18313;48.518;9.124;2024-02-16T01:39:40;8.20;;;4.93;;
31734;SDS011;18313;48.518;9.124;2024-02-16T01:42:07;8.65;;;5.22;;
31734;SDS011;18313;48.518;9.124;2024-02-16T01:44:35;10.93;;;5.18;;
31734;SDS011;18313;48.518;9.124;2024-02-16T01:47:02;8.30;;;5.03;;
31734;SDS011;18313;48.518;9.124;2024-02-16T01:49:30;8.13;;;4.93;;
31734;SDS011;18313;48.518;9.124;2024-02-16T01:51:59;9.85;;;5.20;;
31734;SDS011;18313;48.518;9.124;2024-02-16T01:54:27;9.60;;;5.50;;
31734;SDS011;18313;48.518;9.124;2024-02-16T01:56:54;8.98;;;5.38;;
31734;SDS011;18313;48.518;9.124;2024-02-16T01:59:22;10.70;;;5.70;;
31734;SDS011;18313;48.518;9.124;2024-02-16T02:01:50;10.30;;;5.55;;
31734;SDS011;18313;48.518;9.124;2024-02-16T02:04:17;9.35;;;5.50;;
31734;SDS011;18313;48.518;9.124;2024-02-16T02:06:46;9.57;;;5.85;;
31734;SDS011;18313;48.518;9.124;2024-02-16T02:09:14;9.23;;;5.60;;
31734;SDS011;18313;48.518;9.124;2024-02-16T02:11:41;9.48;;;5.45;;
31734;SDS011;18313;48.518;9.124;2024-02-16T02:14:08;9.07;;;5.85;;
31734;SDS011;18313;48.518;9.124;2024-02-16T02:16:35;9.25;;;5.28;;
31734;SDS011;18313;48.518;9.124;2024-02-16T02:19:16;9.20;;;5.30;;
31734;SDS011;18313;48.518;9.124;2024-02-16T02:21:44;12.55;;;5.68;;
31734;SDS011;18313;48.518;9.124;2024-02-16T02:24:11;9.15;;;5.50;;
31734;SDS011;18313;48.518;9.124;2024-02-16T02:26:39;10.15;;;5.50;;
31734;SDS011;18313;48.518;9.124;2024-02-16T02:29:06;10.35;;;5.28;;
31734;SDS011;18313;48.518;9.124;2024-02-16T02:31:33;10.15;;;5.38;;
31734;SDS011;18313;48.518;9.124;2024-02-16T02:34:01;8.57;;;5.30;;
31734;SDS011;18313;48.518;9.124;2024-02-16T02:36:28;9.88;;;5.32;;
31734;SDS011;18313;48.518;9.124;2024-02-16T02:38:56;9.52;;;5.28;;
31734;SDS011;18313;48.518;9.124;2024-02-16T02:41:24;8.68;;;4.93;;
31734;SDS011;18313;48.518;9.124;2024-02-16T02:43:51;9.85;;;5.28;;
31734;SDS011;18313;48.518;9.124;2024-02-16T02:46:19;8.57;;;5.22;;
31734;SDS011;18313;48.518;9.124;2024-02-16T02:48:46;9.60;;;4.88;;
31734;SDS011;18313;48.518;9.124;2024-02-16T02:51:18;8.27;;;4.63;;
31734;SDS011;18313;48.518;9.124;2024-02-16T02:53:45;8.60;;;5.13;;
31734;SDS011;18313;48.518;9.124;2024-02-16T02:56:13;8.27;;;4.43;;
31734;SDS011;18313;48.518;9.124;2024-02-16T02:58:40;7.75;;;4.68;;
31734;SDS011;18313;48.518;9.124;2024-02-16T03:01:07;9.75;;;5.22;;
31734;SDS011;18313;48.518;9.124;2024-02-16T03:03:35;7.47;;;5.10;;
31734;SDS011;18313;48.518;9.124;2024-02-16T03:06:03;9.90;;;4.80;;
31734;SDS011;18313;48.518;9.124;2024-02-16T03:08:30;9.48;;;5.05;;
31734;SDS011;18313;48.518;9.124;2024-02-16T03:10:57;11.25;;;5.03;;
31734;SDS011;18313;48.518;9.124;2024-02-16T03:13:28;9.55;;;5.00;;
31734;SDS011;18313;48.518;9.124;2024-02-16T03:15:55;7.53;;;4.78;;
31734;SDS011;18313;48.518;9.124;2024-02-16T03:18:22;9.65;;;4.90;;
31734;SDS011;18313;48.518;9.124;2024-02-16T03:20:50;7.63;;;4.60;;
31734;SDS011;18313;48.518;9.124;2024-02-16T03:23:18;10.07;;;4.82;;
31734;SDS011;18313;48.518;9.124;2024-02-16T03:25:45;8.07;;;4.30;;
31734;SDS011;18313;48.518;9.124;2024-02-16T03:28:12;10.50;;;4.13;;
31734;SDS011;18313;48.518;9.124;2024-02-16T03:30:40;9.15;;;4.60;;
31734;SDS011;18313;48.518;9.124;2024-02-16T03:33:07;7.97;;;4.32;;
31734;SDS011;18313;48.518;9.124;2024-02-16T03:35:36;8.40;;;4.32;;
31734;SDS011;18313;48.518;9.124;2024-02-16T03:38:03;9.02;;;4.03;;
31734;SDS011;18313;48.518;9.124;2024-02-16T03:40:31;5.68;;;3.58;;
31734;SDS011;18313;48.518;9.124;2024-02-16T03:42:59;9.70;;;3.92;;
31734;SDS011;18313;48.518;9.124;2024-02-16T03:45:26;5.78;;;3.67;;
31734;SDS011;18313;48.518;9.124;2024-02-16T03:47:56;6.50;;;3.78;;
31734;SDS011;18313;48.518;9.124;2024-02-16T03:50:23;7.45;;;3.90;;
31734;SDS011;18313;48.518;9.124;2024-02-16T03:52:51;7.00;;;3.85;;
31734;SDS011;18313;48.518;9.124;2024-02-16T03:55:18;6.80;;;3.65;;
31734;SDS011;18313;48.518;9.124;2024-02-16T03:57:46;6.93;;;4.00;;
31734;SDS011;18313;48.518;9.124;2024-02-16T04:00:13;8.77;;;3.88;;
31734;SDS011;18313;48.518;9.124;2024-02-16T04:02:41;8.50;;;4.03;;
31734;SDS011;18313;48.518;9.124;2024-02-16T04:05:08;8.65;;;4.55;;
31734;SDS011;18313;48.518;9.124;2024-02-16T04:07:35;7.63;;;4.22;;
31734;SDS011;18313;48.518;9.124;2024-02-16T04:10:03;6.82;;;3.97;;
31734;SDS011;18313;48.518;9.124;2024-02-16T04:12:30;7.78;;;4.80;;
31734;SDS011;18313;48.518;9.124;2024-02-16T04:14:57;9.68;;;4.55;;
31734;SDS011;18313;48.518;9.124;2024-02-16T04:17:25;9.60;;;4.22;;
31734;SDS011;18313;48.518;9.124;2024-02-16T04:19:52;10.38;;;4.28;;
31734;SDS011;18313;48.518;9.124;2024-02-16T04:22:20;9.40;;;4.70;;
31734;SDS011;18313;48.518;9.124;2024-02-16T04:24:47;9.20;;;4.28;;
31734;SDS011;18313;48.518;9.124;2024-02-16T04:27:14;6.25;;;4.07;;
31734;SDS011;18313;48.518;9.124;2024-02-16T04:29:42;8.82;;;4.70;;
31734;SDS011;18313;48.518;9.124;2024-02-16T04:32:09;7.45;;;4.30;;
31734;SDS011;18313;48.518;9.124;2024-02-16T04:34:36;7.28;;;4.43;;
31734;SDS011;18313;48.518;9.124;2024-02-16T04:37:03;7.63;;;4.43;;
31734;SDS011;18313;48.518;9.124;2024-02-16T04:39:30;8.00;;;4.70;;
31734;SDS011;18313;48.518;9.124;2024-02-16T04:41:58;7.75;;;4.63;;
31734;SDS011;18313;48.518;9.124;2024-02-16T04:44:25;8.20;;;4.80;;
31734;SDS011;18313;48.518;9.124;2024-02-16T04:46:53;8.00;;;4.40;;
31734;SDS011;18313;48.518;9.124;2024-02-16T04:49:20;8.75;;;4.80;;
31734;SDS011;18313;48.518;9.124;2024-02-16T04:51:48;7.63;;;4.40;;
31734;SDS011;18313;48.518;9.124;2024-02-16T04:54:15;8.93;;;4.43;;
31734;SDS011;18313;48.518;9.124;2024-02-16T04:56:43;6.20;;;4.50;;
31734;SDS011;18313;48.518;9.124;2024-02-16T04:59:10;9.52;;;4.38;;
31734;SDS011;18313;48.518;9.124;2024-02-16T05:01:37;8.68;;;4.80;;
31734;SDS011;18313;48.518;9.124;2024-02-16T05:04:04;9.75;;;4.43;;
31734;SDS011;18313;48.518;9.124;2024-02-16T05:06:33;7.80;;;4.13;;
31734;SDS011;18313;48.518;9.124;2024-02-16T05:09:08;7.68;;;3.78;;
31734;SDS011;18313;48.518;9.124;2024-02-16T05:11:35;7.50;;;3.85;;
31734;SDS011;18313;48.518;9.124;2024-02-16T05:14:02;8.60;;;4.43;;
31734;SDS011;18313;48.518;9.124;2024-02-16T05:16:30;8.18;;;4.18;;
31734;SDS011;18313;48.518;9.124;2024-02-16T05:18:58;8.90;;;4.28;;
31734;SDS011;18313;48.518;9.124;2024-02-16T05:21:26;9.98;;;5.53;;
31734;SDS011;18313;48.518;9.124;2024-02-16T05:23:53;9.90;;;5.20;;
31734;SDS011;18313;48.518;9.124;2024-02-16T05:26:21;28.60;;;13.35;;
31734;SDS011;18313;48.518;9.124;2024-02-16T05:28:49;15.18;;;8.48;;
31734;SDS011;18313;48.518;9.124;2024-02-16T05:31:17;10.45;;;5.55;;
31734;SDS011;18313;48.518;9.124;2024-02-16T05:33:47;11.57;;;5.25;;
31734;SDS011;18313;48.518;9.124;2024-02-16T05:36:16;14.07;;;5.95;;
31734;SDS011;18313;48.518;9.124;2024-02-16T05:38:47;12.20;;;6.05;;
31734;SDS011;18313;48.518;9.124;2024-02-16T05:41:17;13.07;;;6.93;;
31734;SDS011;18313;48.518;9.124;2024-02-16T05:43:44;9.40;;;5.43;;
31734;SDS011;18313;48.518;9.124;2024-02-16T05:46:15;11.07;;;5.50;;
31734;SDS011;18313;48.518;9.124;2024-02-16T05:48:43;10.40;;;5.90;;
31734;SDS011;18313;48.518;9.124;2024-02-16T05:51:11;8.95;;;5.65;;
31734;SDS011;18313;48.518;9.124;2024-02-16T05:53:39;8.18;;;5.53;;
31734;SDS011;18313;48.518;9.124;2024-02-16T05:56:07;15.50;;;5.43;;
31734;SDS011;18313;48.518;9.124;2024-02-16T05:58:36;9.25;;;5.00;;
31734;SDS011;18313;48.518;9.124;2024-02-16T06:01:04;8.52;;;4.70;;
31734;SDS011;18313;48.518;9.124;2024-02-16T06:03:31;9.55;;;5.15;;
31734;SDS011;18313;48.518;9.124;2024-02-16T06:05:58;9.63;;;5.13;;
31734;SDS011;18313;48.518;9.124;2024-02-16T06:08:26;8.25;;;4.70;;
31734;SDS011;18313;48.518;9.124;2024-02-16T06:10:56;8.50;;;4.45;;
31734;SDS011;18313;48.518;9.124;2024-02-16T06:13:23;9.45;;;5.20;;
31734;SDS011;18313;48.518;9.124;2024-02-16T06:15:50;8.10;;;5.10;;
31734;SDS011;18313;48.518;9.124;2024-02-16T06:18:18;9.02;;;5.28;;
31734;SDS011;18313;48.518;9.124;2024-02-16T06:20:46;10.05;;;5.18;;
31734;SDS011;18313;48.518;9.124;2024-02-16T06:23:13;8.18;;;5.18;;
31734;SDS011;18313;48.518;9.124;2024-02-16T06:25:43;7.68;;;4.53;;
31734;SDS011;18313;48.518;9.124;2024-02-16T06:28:10;7.97;;;4.30;;
31734;SDS011;18313;48.518;9.124;2024-02-16T06:30:40;9.05;;;4.68;;
31734;SDS011;18313;48.518;9.124;2024-02-16T06:33:07;7.55;;;4.32;;
31734;SDS011;18313;48.518;9.124;2024-02-16T06:35:36;8.38;;;4.38;;
31734;SDS011;18313;48.518;9.124;2024-02-16T06:38:03;9.60;;;4.25;;
31734;SDS011;18313;48.518;9.124;2024-02-16T06:40:30;7.15;;;4.28;;
31734;SDS011;18313;48.518;9.124;2024-02-16T06:42:58;9.50;;;3.88;;
31734;SDS011;18313;48.518;9.124;2024-02-16T06:45:25;9.25;;;4.07;;
31734;SDS011;18313;48.518;9.124;2024-02-16T06:47:53;12.02;;;4.65;;
31734;SDS011;18313;48.518;9.124;2024-02-16T06:50:20;8.80;;;3.83;;
31734;SDS011;18313;48.518;9.124;2024-02-16T06:52:47;8.52;;;4.10;;
31734;SDS011;18313;48.518;9.124;2024-02-16T06:55:14;7.82;;;3.95;;
31734;SDS011;18313;48.518;9.124;2024-02-16T06:57:42;6.72;;;3.95;;
31734;SDS011;18313;48.518;9.124;2024-02-16T07:00:10;7.28;;;4.00;;
31734;SDS011;18313;48.518;9.124;2024-02-16T07:02:38;9.85;;;4.13;;
31734;SDS011;18313;48.518;9.124;2024-02-16T07:05:07;7.03;;;3.42;;
31734;SDS011;18313;48.518;9.124;2024-02-16T07:07:35;4.70;;;2.80;;
31734;SDS011;18313;48.518;9.124;2024-02-16T07:10:02;8.18;;;3.80;;
31734;SDS011;18313;48.518;9.124;2024-02-16T07:12:35;7.38;;;3.58;;
31734;SDS011;18313;48.518;9.124;2024-02-16T07:15:02;7.38;;;3.80;;
31734;SDS011;18313;48.518;9.124;2024-02-16T07:17:30;7.90;;;3.80;;
31734;SDS011;18313;48.518;9.124;2024-02-16T07:19:57;6.88;;;3.13;;
31734;SDS011;18313;48.518;9.124;2024-02-16T07:22:25;6.68;;;3.20;;
31734;SDS011;18313;48.518;9.124;2024-02-16T07:24:52;6.45;;;3.10;;
31734;SDS011;18313;48.518;9.124;2024-02-16T07:27:20;5.55;;;2.78;;
31734;SDS011;18313;48.518;9.124;2024-02-16T07:29:48;7.63;;;2.78;;
31734;SDS011;18313;48.518;9.124;2024-02-16T07:32:15;4.97;;;2.58;;
31734;SDS011;18313;48.518;9.124;2024-02-16T07:34:46;6.72;;;3.15;;
31734;SDS011;18313;48.518;9.124;2024-02-16T07:37:17;11.00;;;4.47;;
31734;SDS011;18313;48.518;9.124;2024-02-16T07:39:44;5.82;;;3.55;;
31734;SDS011;18313;48.518;9.124;2024-02-16T07:42:11;10.15;;;2.92;;
31734;SDS011;18313;48.518;9.124;2024-02-16T07:44:39;6.00;;;3.38;;
31734;SDS011;18313;48.518;9.124;2024-02-16T07:47:06;7.00;;;3.53;;
31734;SDS011;18313;48.518;9.124;2024-02-16T07:49:37;8.68;;;3.90;;
31734;SDS011;18313;48.518;9.124;2024-02-16T07:52:06;11.02;;;3.30;;
31734;SDS011;18313;48.518;9.124;2024-02-16T07:54:33;7.35;;;3.10;;
31734;SDS011;18313;48.518;9.124;2024-02-16T07:57:01;6.55;;;3.20;;
31734;SDS011;18313;48.518;9.124;2024-02-16T07:59:28;6.03;;;2.70;;
31734;SDS011;18313;48.518;9.124;2024-02-16T08:01:56;5.93;;;3.08;;
31734;SDS011;18313;48.518;9.124;2024-02-16T08:04:23;4.07;;;2.40;;
31734;SDS011;18313;48.518;9.124;2024-02-16T08:06:50;7.80;;;3.08;;
31734;SDS011;18313;48.518;9.124;2024-02-16T08:09:18;5.53;;;2.90;;
31734;SDS011;18313;48.518;9.124;2024-02-16T08:11:45;8.82;;;2.97;;
31734;SDS011;18313;48.518;9.124;2024-02-16T08:14:13;5.07;;;3.10;;
31734;SDS011;18313;48.518;9.124;2024-02-16T08:16:40;7.60;;;3.38;;
31734;SDS011;18313;48.518;9.124;2024-02-16T08:19:07;6.13;;;3.50;;
31734;SDS011;18313;48.518;9.124;2024-02-16T08:21:34;7.35;;;3.42;;
31734;SDS011;18313;48.518;9.124;2024-02-16T08:24:02;7.88;;;3.38;;
31734;SDS011;18313;48.518;9.124;2024-02-16T08:26:29;6.38;;;3.10;;
31734;SDS011;18313;48.518;9.124;2024-02-16T08:28:56;7.32;;;3.28;;
31734;SDS011;18313;48.518;9.124;2024-02-16T08:31:24;7.28;;;2.90;;
31734;SDS011;18313;48.518;9.124;2024-02-16T08:33:51;6.35;;;2.97;;
31734;SDS011;18313;48.518;9.124;2024-02-16T08:36:19;6.45;;;3.05;;
31734;SDS011;18313;48.518;9.124;2024-02-16T08:38:48;6.97;;;2.95;;
31734;SDS011;18313;48.518;9.124;2024-02-16T08:41:15;6.85;;;2.75;;
31734;SDS011;18313;48.518;9.124;2024-02-16T08:43:42;4.90;;;2.60;;
31734;SDS011;18313;48.518;9.124;2024-02-16T08:46:10;6.78;;;3.03;;
31734;SDS011;18313;48.518;9.124;2024-02-16T08:48:37;6.80;;;3.10;;
31734;SDS011;18313;48.518;9.124;2024-02-16T08:51:04;8.32;;;2.83;;
31734;SDS011;18313;48.518;9.124;2024-02-16T08:53:32;5.57;;;3.08;;
31734;SDS011;18313;48.518;9.124;2024-02-16T08:56:00;7.72;;;3.00;;
31734;SDS011;18313;48.518;9.124;2024-02-16T08:58:27;8.35;;;2.70;;
31734;SDS011;18313;48.518;9.124;2024-02-16T09:00:55;6.20;;;3.00;;
31734;SDS011;18313;48.518;9.124;2024-02-16T09:03:22;7.68;;;2.90;;
31734;SDS011;18313;48.518;9.124;2024-02-16T09:05:51;5.13;;;2.80;;
31734;SDS011;18313;48.518;9.124;2024-02-16T09:08:18;6.40;;;2.88;;
31734;SDS011;18313;48.518;9.124;2024-02-16T09:10:45;6.20;;;2.88;;
31734;SDS011;18313;48.518;9.124;2024-02-16T09:13:13;6.25;;;2.90;;
31734;SDS011;18313;48.518;9.124;2024-02-16T09:15:40;7.97;;;3.10;;
31734;SDS011;18313;48.518;9.124;2024-02-16T09:18:07;6.20;;;2.95;;
31734;SDS011;18313;48.518;9.124;2024-02-16T09:20:34;5.03;;;2.67;;
31734;SDS011;18313;48.518;9.124;2024-02-16T09:23:02;7.78;;;2.88;;
31734;SDS011;18313;48.518;9.124;2024-02-16T09:25:29;6.85;;;2.53;;
31734;SDS011;18313;48.518;9.124;2024-02-16T09:27:56;4.80;;;2.70;;
31734;SDS011;18313;48.518;9.124;2024-02-16T09:30:23;8.90;;;2.60;;
31734;SDS011;18313;48.518;9.124;2024-02-16T09:32:53;6.95;;;2.78;;
31734;SDS011;18313;48.518;9.124;2024-02-16T09:35:20;5.60;;;2.50;;
31734;SDS011;18313;48.518;9.124;2024-02-16T09:37:48;6.32;;;2.67;;
31734;SDS011;18313;48.518;9.124;2024-02-16T09:40:15;5.32;;;2.75;;
31734;SDS011;18313;48.518;9.124;2024-02-16T09:42:47;6.93;;;3.08;;
31734;SDS011;18313;48.518;9.124;2024-02-16T09:45:16;7.85;;;2.80;;
31734;SDS011;18313;48.518;9.124;2024-02-16T09:47:44;5.55;;;2.83;;
31734;SDS011;18313;48.518;9.124;2024-02-16T09:50:26;5.03;;;2.47;;
31734;SDS011;18313;48.518;9.124;2024-02-16T09:52:54;6.53;;;2.90;;
31734;SDS011;18313;48.518;9.124;2024-02-16T09:55:22;6.88;;;3.13;;
31734;SDS011;18313;48.518;9.124;2024-02-16T09:57:59;8.18;;;2.78;;
31734;SDS011;18313;48.518;9.124;2024-02-16T10:00:28;7.72;;;2.92;;
31734;SDS011;18313;48.518;9.124;2024-02-16T10:02:56;8.23;;;2.80;;
31734;SDS011;18313;48.518;9.124;2024-02-16T10:05:23;6.35;;;2.42;;
31734;SDS011;18313;48.518;9.124;2024-02-16T10:07:52;6.70;;;3.33;;
31734;SDS011;18313;48.518;9.124;2024-02-16T10:10:19;5.00;;;2.58;;
31734;SDS011;18313;48.518;9.124;2024-02-16T10:12:49;5.53;;;2.70;;
31734;SDS011;18313;48.518;9.124;2024-02-16T10:15:22;5.50;;;2.63;;
31734;SDS011;18313;48.518;9.124;2024-02-16T10:18:01;3.92;;;2.42;;
31734;SDS011;18313;48.518;9.124;2024-02-16T10:20:30;4.93;;;2.60;;
31734;SDS011;18313;48.518;9.124;2024-02-16T10:25:30;5.43;;;2.63;;
31734;SDS011;18313;48.518;9.124;2024-02-16T10:28:01;5.53;;;2.55;;
31734;SDS011;18313;48.518;9.124;2024-02-16T10:30:34;4.80;;;2.42;;
31734;SDS011;18313;48.518;9.124;2024-02-16T10:33:06;5.18;;;2.35;;
31734;SDS011;18313;48.518;9.124;2024-02-16T10:35:36;4.10;;;2.50;;
31734;SDS011;18313;48.518;9.124;2024-02-16T10:38:04;5.13;;;2.28;;
31734;SDS011;18313;48.518;9.124;2024-02-16T10:40:39;7.70;;;2.30;;
31734;SDS011;18313;48.518;9.124;2024-02-16T10:43:08;6.30;;;2.65;;
31734;SDS011;18313;48.518;9.124;2024-02-16T10:45:37;5.35;;;2.60;;
31734;SDS011;18313;48.518;9.124;2024-02-16T10:48:06;6.30;;;2.50;;
31734;SDS011;18313;48.518;9.124;2024-02-16T10:50:35;5.57;;;2.55;;
31734;SDS011;18313;48.518;9.124;2024-02-16T10:53:04;5.32;;;2.30;;
31734;SDS011;18313;48.518;9.124;2024-02-16T10:55:33;5.00;;;2.45;;
31734;SDS011;18313;48.518;9.124;2024-02-16T10:58:00;4.70;;;2.00;;
31734;SDS011;18313;48.518;9.124;2024-02-16T11:00:27;6.93;;;2.28;;
31734;SDS011;18313;48.518;9.124;2024-02-16T11:02:55;8.50;;;2.42;;
31734;SDS011;18313;48.518;9.124;2024-02-16T11:05:32;8.15;;;2.40;;
31734;SDS011;18313;48.518;9.124;2024-02-16T11:08:00;5.00;;;2.30;;
31734;SDS011;18313;48.518;9.124;2024-02-16T11:10:28;9.18;;;2.20;;
31734;SDS011;18313;48.518;9.124;2024-02-16T11:13:02;5.82;;;2.50;;
31734;SDS011;18313;48.518;9.124;2024-02-16T11:15:34;7.35;;;2.20;;
31734;SDS011;18313;48.518;9.124;2024-02-16T11:18:03;3.75;;;1.60;;
31734;SDS011;18313;48.518;9.124;2024-02-16T11:20:37;4.65;;;1.75;;
31734;SDS011;18313;48.518;9.124;2024-02-16T11:23:08;5.70;;;1.73;;
31734;SDS011;18313;48.518;9.124;2024-02-16T11:25:36;7.22;;;1.83;;
31734;SDS011;18313;48.518;9.124;2024-02-16T11:28:03;3.50;;;1.58;;
31734;SDS011;18313;48.518;9.124;2024-02-16T11:30:33;3.97;;;1.52;;
31734;SDS011;18313;48.518;9.124;2024-02-16T11:33:02;5.45;;;2.10;;
31734;SDS011;18313;48.518;9.124;2024-02-16T11:35:31;4.82;;;2.10;;
31734;SDS011;18313;48.518;9.124;2024-02-16T11:37:58;6.25;;;1.80;;
31734;SDS011;18313;48.518;9.124;2024-02-16T11:40:26;4.43;;;2.13;;
31734;SDS011;18313;48.518;9.124;2024-02-16T11:42:59;8.70;;;1.70;;
31734;SDS011;18313;48.518;9.124;2024-02-16T11:45:27;6.35;;;1.95;;
31734;SDS011;18313;48.518;9.124;2024-02-16T11:48:05;3.28;;;1.50;;
31734;SDS011;18313;48.518;9.124;2024-02-16T11:50:36;5.93;;;1.67;;
31734;SDS011;18313;48.518;9.124;2024-02-16T11:53:04;3.53;;;1.40;;
31734;SDS011;18313;48.518;9.124;2024-02-16T11:55:31;3.75;;;1.50;;
31734;SDS011;18313;48.518;9.124;2024-02-16T11:57:59;5.82;;;1.70;;
31734;SDS011;18313;48.518;9.124;2024-02-16T12:00:27;5.65;;;1.85;;
31734;SDS011;18313;48.518;9.124;2024-02-16T12:03:00;6.75;;;1.63;;
31734;SDS011;18313;48.518;9.124;2024-02-16T12:05:28;4.30;;;1.70;;
31734;SDS011;18313;48.518;9.124;2024-02-16T12:07:57;4.50;;;1.40;;
31734;SDS011;18313;48.518;9.124;2024-02-16T12:10:25;5.18;;;1.45;;
31734;SDS011;18313;48.518;9.124;2024-02-16T12:12:53;4.45;;;1.60;;
31734;SDS011;18313;48.518;9.124;2024-02-16T12:15:24;6.93;;;1.80;;
31734;SDS011;18313;48.518;9.124;2024-02-16T12:18:00;5.95;;;1.70;;
31734;SDS011;18313;48.518;9.124;2024-02-16T12:20:29;4.47;;;1.50;;
31734;SDS011;18313;48.518;9.124;2024-02-16T12:22:57;4.00;;;1.50;;
31734;SDS011;18313;48.518;9.124;2024-02-16T12:25:25;7.88;;;1.50;;
31734;SDS011;18313;48.518;9.124;2024-02-16T12:27:52;4.07;;;1.60;;
31734;SDS011;18313;48.518;9.124;2024-02-16T12:30:20;5.45;;;2.00;;
31734;SDS011;18313;48.518;9.124;2024-02-16T12:32:47;3.92;;;1.50;;
31734;SDS011;18313;48.518;9.124;2024-02-16T12:35:14;5.18;;;1.50;;
31734;SDS011;18313;48.518;9.124;2024-02-16T12:37:42;5.90;;;1.70;;
31734;SDS011;18313;48.518;9.124;2024-02-16T12:40:09;5.03;;;1.80;;
31734;SDS011;18313;48.518;9.124;2024-02-16T12:42:36;5.40;;;1.50;;
31734;SDS011;18313;48.518;9.124;2024-02-16T12:45:04;4.05;;;1.52;;
31734;SDS011;18313;48.518;9.124;2024-02-16T12:47:32;4.85;;;1.73;;
31734;SDS011;18313;48.518;9.124;2024-02-16T12:49:59;6.45;;;1.35;;
31734;SDS011;18313;48.518;9.124;2024-02-16T12:52:26;6.65;;;2.08;;
31734;SDS011;18313;48.518;9.124;2024-02-16T12:54:54;7.40;;;1.80;;
31734;SDS011;18313;48.518;9.124;2024-02-16T12:57:24;5.35;;;1.70;;
31734;SDS011;18313;48.518;9.124;2024-02-16T12:59:51;5.25;;;1.80;;
31734;SDS011;18313;48.518;9.124;2024-02-16T13:02:19;4.53;;;1.50;;
31734;SDS011;18313;48.518;9.124;2024-02-16T13:04:46;5.90;;;1.70;;
31734;SDS011;18313;48.518;9.124;2024-02-16T13:07:13;5.07;;;1.90;;
31734;SDS011;18313;48.518;9.124;2024-02-16T13:09:41;6.82;;;1.90;;
31734;SDS011;18313;48.518;9.124;2024-02-16T13:12:08;5.90;;;1.92;;
31734;SDS011;18313;48.518;9.124;2024-02-16T13:14:36;4.30;;;1.70;;
31734;SDS011;18313;48.518;9.124;2024-02-16T13:17:03;7.22;;;1.90;;
31734;SDS011;18313;48.518;9.124;2024-02-16T13:19:31;4.60;;;1.65;;
31734;SDS011;18313;48.518;9.124;2024-02-16T13:21:58;7.68;;;1.80;;
31734;SDS011;18313;48.518;9.124;2024-02-16T13:24:25;6.90;;;1.92;;
31734;SDS011;18313;48.518;9.124;2024-02-16T13:26:54;7.88;;;1.95;;
31734;SDS011;18313;48.518;9.124;2024-02-16T13:29:22;7.65;;;1.98;;
31734;SDS011;18313;48.518;9.124;2024-02-16T13:31:50;4.95;;;1.85;;
31734;SDS011;18313;48.518;9.124;2024-02-16T13:34:17;5.95;;;2.10;;
31734;SDS011;18313;48.518;9.124;2024-02-16T13:36:44;5.75;;;1.65;;
31734;SDS011;18313;48.518;9.124;2024-02-16T13:39:11;7.85;;;2.00;;
31734;SDS011;18313;48.518;9.124;2024-02-16T13:41:40;5.40;;;1.80;;
31734;SDS011;18313;48.518;9.124;2024-02-16T13:44:10;9.23;;;1.90;;
31734;SDS011;18313;48.518;9.124;2024-02-16T13:46:37;8.88;;;1.90;;
31734;SDS011;18313;48.518;9.124;2024-02-16T13:49:04;7.45;;;2.00;;
31734;SDS011;18313;48.518;9.124;2024-02-16T13:51:32;7.25;;;2.00;;
31734;SDS011;18313;48.518;9.124;2024-02-16T13:53:59;11.57;;;3.10;;
31734;SDS011;18313;48.518;9.124;2024-02-16T13:56:27;7.20;;;2.40;;
31734;SDS011;18313;48.518;9.124;2024-02-16T13:58:54;8.52;;;2.10;;
31734;SDS011;18313;48.518;9.124;2024-02-16T14:01:21;7.22;;;2.00;;
31734;SDS011;18313;48.518;9.124;2024-02-16T14:03:49;8.13;;;2.03;;
31734;SDS011;18313;48.518;9.124;2024-02-16T14:06:17;9.00;;;2.00;;
31734;SDS011;18313;48.518;9.124;2024-02-16T14:08:45;8.65;;;1.98;;
31734;SDS011;18313;48.518;9.124;2024-02-16T14:11:14;9.63;;;2.03;;
31734;SDS011;18313;48.518;9.124;2024-02-16T14:13:41;7.32;;;2.10;;
31734;SDS011;18313;48.518;9.124;2024-02-16T14:16:08;7.93;;;1.70;;
31734;SDS011;18313;48.518;9.124;2024-02-16T14:18:36;7.55;;;1.88;;
31734;SDS011;18313;48.518;9.124;2024-02-16T14:21:04;13.80;;;2.33;;
31734;SDS011;18313;48.518;9.124;2024-02-16T14:23:31;5.88;;;1.65;;
31734;SDS011;18313;48.518;9.124;2024-02-16T14:25:59;10.32;;;1.92;;
31734;SDS011;18313;48.518;9.124;2024-02-16T14:28:26;8.02;;;2.50;;
31734;SDS011;18313;48.518;9.124;2024-02-16T14:30:54;9.80;;;3.05;;
31734;SDS011;18313;48.518;9.124;2024-02-16T14:33:21;7.95;;;1.90;;
31734;SDS011;18313;48.518;9.124;2024-02-16T14:36:00;8.50;;;2.10;;
31734;SDS011;18313;48.518;9.124;2024-02-16T14:38:31;7.70;;;1.80;;
31734;SDS011;18313;48.518;9.124;2024-02-16T14:40:58;6.35;;;1.85;;
31734;SDS011;18313;48.518;9.124;2024-02-16T14:43:30;11.18;;;1.83;;
31734;SDS011;18313;48.518;9.124;2024-02-16T14:45:57;9.80;;;1.80;;
31734;SDS011;18313;48.518;9.124;2024-02-16T14:48:25;8.02;;;2.00;;
31734;SDS011;18313;48.518;9.124;2024-02-16T14:50:52;11.52;;;2.08;;
31734;SDS011;18313;48.518;9.124;2024-02-16T14:53:20;6.78;;;2.17;;